sensor_id;sensor_type;location;lat;lon;timestamp;pressure;altitude;pressure_sealevel;temperature;humidity
17505;BME280;8870;50.950;11.762;2023-02-01T00:05:14;98348.34;;;4.01;100.00
17505;BME280;8870;50.950;11.762;2023-02-01T00:10:33;98339.38;;;4.03;100.00
17505;BME280;8870;50.950;11.762;2023-02-01T00:16:06;98331.38;;;4.03;100.00
17505;BME280;8870;50.950;11.762;2023-02-01T00:21:29;98343.84;;;3.91;100.00
17505;BME280;8870;50.950;11.762;2023-02-01T00:27:00;98338.41;;;3.81;100.00
17505;BME280;8870;50.950;11.762;2023-02-01T00:32:18;98344.94;;;3.88;100.00
17505;BME280;8870;50.950;11.762;2023-02-01T00:37:51;98347.75;;;3.87;100.00
17505;BME280;8870;50.950;11.762;2023-02-01T00:43:11;98347.84;;;3.96;100.00
17505;BME280;8870;50.950;11.762;2023-02-01T00:48:46;98359.25;;;3.98;100.00
17505;BME280;8870;50.950;11.762;2023-02-01T00:54:07;98352.44;;;3.94;100.00
17505;BME280;8870;50.950;11.762;2023-02-01T00:59:39;98348.72;;;3.97;100.00
17505;BME280;8870;50.950;11.762;2023-02-01T01:05:10;98341.91;;;3.93;100.00
17505;BME280;8870;50.950;11.762;2023-02-01T01:10:30;98332.34;;;3.90;100.00
17505;BME280;8870;50.950;11.762;2023-02-01T01:16:05;98340.00;;;3.95;100.00
17505;BME280;8870;50.950;11.762;2023-02-01T01:21:25;98317.81;;;3.83;100.00
17505;BME280;8870;50.950;11.762;2023-02-01T01:26:59;98313.19;;;3.85;100.00
17505;BME280;8870;50.950;11.762;2023-02-01T01:32:19;98323.41;;;3.80;100.00
17505;BME280;8870;50.950;11.762;2023-02-01T01:37:51;98316.84;;;3.84;100.00
17505;BME280;8870;50.950;11.762;2023-02-01T01:43:16;98311.13;;;3.77;100.00
17505;BME280;8870;50.950;11.762;2023-02-01T01:48:50;98305.47;;;3.82;100.00
17505;BME280;8870;50.950;11.762;2023-02-01T01:54:14;98296.75;;;3.80;100.00
17505;BME280;8870;50.950;11.762;2023-02-01T01:59:54;98299.16;;;3.83;100.00
17505;BME280;8870;50.950;11.762;2023-02-01T02:05:18;98297.47;;;3.82;100.00
17505;BME280;8870;50.950;11.762;2023-02-01T02:10:51;98296.38;;;3.84;100.00
17505;BME280;8870;50.950;11.762;2023-02-01T02:16:44;98295.53;;;3.84;100.00
17505;BME280;8870;50.950;11.762;2023-02-01T02:22:43;98283.06;;;3.84;100.00
17505;BME280;8870;50.950;11.762;2023-02-01T02:28:18;98266.69;;;3.89;100.00
17505;BME280;8870;50.950;11.762;2023-02-01T02:34:05;98251.81;;;3.87;100.00
17505;BME280;8870;50.950;11.762;2023-02-01T02:39:52;98256.78;;;3.80;100.00
17505;BME280;8870;50.950;11.762;2023-02-01T02:46:01;98248.06;;;3.78;100.00
17505;BME280;8870;50.950;11.762;2023-02-01T02:51:45;98253.16;;;3.81;100.00
17505;BME280;8870;50.950;11.762;2023-02-01T02:57:36;98247.81;;;3.81;100.00
17505;BME280;8870;50.950;11.762;2023-02-01T03:03:09;98260.16;;;3.70;100.00
17505;BME280;8870;50.950;11.762;2023-02-01T03:08:58;98245.84;;;3.83;100.00
17505;BME280;8870;50.950;11.762;2023-02-01T03:14:23;98240.28;;;3.75;100.00
17505;BME280;8870;50.950;11.762;2023-02-01T03:20:12;98233.78;;;3.67;100.00
17505;BME280;8870;50.950;11.762;2023-02-01T03:25:51;98238.97;;;3.69;100.00
17505;BME280;8870;50.950;11.762;2023-02-01T03:31:24;98231.09;;;3.67;100.00
17505;BME280;8870;50.950;11.762;2023-02-01T03:36:48;98225.91;;;3.54;100.00
17505;BME280;8870;50.950;11.762;2023-02-01T03:42:27;98213.81;;;3.50;100.00
17505;BME280;8870;50.950;11.762;2023-02-01T03:47:50;98215.13;;;3.45;100.00
17505;BME280;8870;50.950;11.762;2023-02-01T03:53:24;98207.88;;;3.47;100.00
17505;BME280;8870;50.950;11.762;2023-02-01T03:58:50;98199.91;;;3.47;100.00
17505;BME280;8870;50.950;11.762;2023-02-01T04:04:25;98205.69;;;3.41;100.00
17505;BME280;8870;50.950;11.762;2023-02-01T04:09:44;98211.75;;;3.43;100.00
17505;BME280;8870;50.950;11.762;2023-02-01T04:15:21;98218.16;;;3.40;100.00
17505;BME280;8870;50.950;11.762;2023-02-01T04:20:31;98216.56;;;3.37;100.00
17505;BME280;8870;50.950;11.762;2023-02-01T04:26:02;98219.38;;;3.47;100.00
17505;BME280;8870;50.950;11.762;2023-02-01T04:31:26;98202.88;;;3.53;100.00
17505;BME280;8870;50.950;11.762;2023-02-01T04:36:58;98182.91;;;3.59;100.00
17505;BME280;8870;50.950;11.762;2023-02-01T04:42:17;98169.13;;;3.54;100.00
17505;BME280;8870;50.950;11.762;2023-02-01T04:47:51;98170.09;;;3.53;100.00
17505;BME280;8870;50.950;11.762;2023-02-01T04:53:09;98157.03;;;3.38;100.00
17505;BME280;8870;50.950;11.762;2023-02-01T04:58:41;98160.56;;;3.28;100.00
17505;BME280;8870;50.950;11.762;2023-02-01T05:04:02;98147.25;;;3.28;100.00
17505;BME280;8870;50.950;11.762;2023-02-01T05:09:34;98136.97;;;3.23;100.00
17505;BME280;8870;50.950;11.762;2023-02-01T05:14:52;98122.66;;;3.24;100.00
17505;BME280;8870;50.950;11.762;2023-02-01T05:20:26;98121.47;;;3.17;100.00
17505;BME280;8870;50.950;11.762;2023-02-01T05:25:45;98121.31;;;3.18;100.00
17505;BME280;8870;50.950;11.762;2023-02-01T05:31:17;98107.94;;;3.08;100.00
17505;BME280;8870;50.950;11.762;2023-02-01T05:36:38;98102.84;;;3.05;100.00
17505;BME280;8870;50.950;11.762;2023-02-01T05:42:09;98099.44;;;3.03;100.00
17505;BME280;8870;50.950;11.762;2023-02-01T05:47:27;98099.69;;;3.00;100.00
17505;BME280;8870;50.950;11.762;2023-02-01T05:53:00;98104.91;;;3.02;100.00
17505;BME280;8870;50.950;11.762;2023-02-01T05:58:32;98104.66;;;3.05;100.00
17505;BME280;8870;50.950;11.762;2023-02-01T06:03:50;98093.66;;;3.10;100.00
17505;BME280;8870;50.950;11.762;2023-02-01T06:09:26;98098.72;;;3.01;100.00
17505;BME280;8870;50.950;11.762;2023-02-01T06:14:45;98086.03;;;3.05;100.00
17505;BME280;8870;50.950;11.762;2023-02-01T06:20:16;98095.81;;;3.04;100.00
17505;BME280;8870;50.950;11.762;2023-02-01T06:25:37;98079.47;;;3.09;100.00
17505;BME280;8870;50.950;11.762;2023-02-01T06:31:10;98086.97;;;3.27;100.00
17505;BME280;8870;50.950;11.762;2023-02-01T06:36:28;98121.19;;;3.43;100.00
17505;BME280;8870;50.950;11.762;2023-02-01T06:42:03;98090.91;;;3.55;100.00
17505;BME280;8870;50.950;11.762;2023-02-01T06:47:21;98068.13;;;3.62;100.00
17505;BME280;8870;50.950;11.762;2023-02-01T06:52:53;98070.69;;;3.64;100.00
17505;BME280;8870;50.950;11.762;2023-02-01T06:58:14;98079.88;;;3.60;100.00
17505;BME280;8870;50.950;11.762;2023-02-01T07:03:47;98078.31;;;3.57;100.00
17505;BME280;8870;50.950;11.762;2023-02-01T07:09:06;98073.81;;;3.58;100.00
17505;BME280;8870;50.950;11.762;2023-02-01T07:14:40;98059.53;;;3.59;100.00
17505;BME280;8870;50.950;11.762;2023-02-01T07:19:59;98072.22;;;3.66;100.00
17505;BME280;8870;50.950;11.762;2023-02-01T07:25:30;98070.78;;;3.62;100.00
17505;BME280;8870;50.950;11.762;2023-02-01T07:30:51;98077.94;;;3.62;100.00
17505;BME280;8870;50.950;11.762;2023-02-01T07:36:24;98067.63;;;3.68;100.00
17505;BME280;8870;50.950;11.762;2023-02-01T07:41:42;98061.28;;;3.81;100.00
17505;BME280;8870;50.950;11.762;2023-02-01T07:47:16;98085.50;;;3.78;100.00
17505;BME280;8870;50.950;11.762;2023-02-01T07:52:35;98070.34;;;3.78;100.00
17505;BME280;8870;50.950;11.762;2023-02-01T07:58:06;98075.59;;;3.80;100.00
17505;BME280;8870;50.950;11.762;2023-02-01T08:03:29;98098.09;;;3.76;100.00
17505;BME280;8870;50.950;11.762;2023-02-01T08:09:00;98079.06;;;3.80;100.00
17505;BME280;8870;50.950;11.762;2023-02-01T08:14:18;98070.13;;;3.81;100.00
17505;BME280;8870;50.950;11.762;2023-02-01T08:19:51;98065.66;;;3.70;100.00
17505;BME280;8870;50.950;11.762;2023-02-01T08:25:10;98077.38;;;3.79;100.00
17505;BME280;8870;50.950;11.762;2023-02-01T08:30:41;98070.25;;;3.80;100.00
17505;BME280;8870;50.950;11.762;2023-02-01T08:36:04;98081.34;;;3.85;100.00
17505;BME280;8870;50.950;11.762;2023-02-01T08:41:36;98107.97;;;3.96;100.00
17505;BME280;8870;50.950;11.762;2023-02-01T08:46:55;98082.50;;;4.04;100.00
17505;BME280;8870;50.950;11.762;2023-02-01T08:52:31;98088.81;;;4.03;100.00
17505;BME280;8870;50.950;11.762;2023-02-01T08:57:49;98111.22;;;4.00;100.00
17505;BME280;8870;50.950;11.762;2023-02-01T09:03:21;98105.78;;;4.01;100.00
17505;BME280;8870;50.950;11.762;2023-02-01T09:08:42;98114.66;;;3.91;100.00
17505;BME280;8870;50.950;11.762;2023-02-01T09:14:13;98130.97;;;3.97;100.00
17505;BME280;8870;50.950;11.762;2023-02-01T09:19:31;98118.53;;;3.98;100.00
17505;BME280;8870;50.950;11.762;2023-02-01T09:25:07;98115.25;;;3.94;100.00
17505;BME280;8870;50.950;11.762;2023-02-01T09:30:26;98120.91;;;4.01;100.00
17505;BME280;8870;50.950;11.762;2023-02-01T09:36:01;98102.81;;;4.16;100.00
17505;BME280;8870;50.950;11.762;2023-02-01T09:41:32;98131.69;;;4.32;100.00
17505;BME280;8870;50.950;11.762;2023-02-01T09:47:11;98108.75;;;4.41;100.00
17505;BME280;8870;50.950;11.762;2023-02-01T09:52:34;98166.00;;;4.58;100.00
17505;BME280;8870;50.950;11.762;2023-02-01T09:58:13;98150.03;;;4.68;100.00
17505;BME280;8870;50.950;11.762;2023-02-01T10:03:34;98150.25;;;4.76;100.00
17505;BME280;8870;50.950;11.762;2023-02-01T10:09:19;98139.63;;;4.65;100.00
17505;BME280;8870;50.950;11.762;2023-02-01T10:14:55;98145.50;;;4.58;100.00
17505;BME280;8870;50.950;11.762;2023-02-01T10:20:36;98145.63;;;4.57;100.00
17505;BME280;8870;50.950;11.762;2023-02-01T10:26:10;98156.88;;;4.60;100.00
17505;BME280;8870;50.950;11.762;2023-02-01T10:31:46;98139.25;;;4.69;100.00
17505;BME280;8870;50.950;11.762;2023-02-01T10:37:23;98136.84;;;4.87;100.00
17505;BME280;8870;50.950;11.762;2023-02-01T10:42:58;98146.38;;;5.11;100.00
17505;BME280;8870;50.950;11.762;2023-02-01T10:48:21;98161.53;;;5.11;100.00
17505;BME280;8870;50.950;11.762;2023-02-01T10:53:57;98132.97;;;5.01;100.00
17505;BME280;8870;50.950;11.762;2023-02-01T10:59:25;98147.59;;;5.07;100.00
17505;BME280;8870;50.950;11.762;2023-02-01T11:05:05;98123.66;;;5.27;100.00
17505;BME280;8870;50.950;11.762;2023-02-01T11:10:38;98128.69;;;5.20;100.00
17505;BME280;8870;50.950;11.762;2023-02-01T11:16:13;98116.31;;;5.19;100.00
17505;BME280;8870;50.950;11.762;2023-02-01T11:21:35;98161.91;;;5.27;100.00
17505;BME280;8870;50.950;11.762;2023-02-01T11:27:14;98125.78;;;5.33;100.00
17505;BME280;8870;50.950;11.762;2023-02-01T11:32:35;98100.38;;;5.48;100.00
17505;BME280;8870;50.950;11.762;2023-02-01T11:38:20;98117.78;;;5.33;100.00
17505;BME280;8870;50.950;11.762;2023-02-01T11:43:54;98108.91;;;5.32;100.00
17505;BME280;8870;50.950;11.762;2023-02-01T11:49:27;98098.38;;;5.31;100.00
17505;BME280;8870;50.950;11.762;2023-02-01T11:55:02;98128.97;;;5.27;100.00
17505;BME280;8870;50.950;11.762;2023-02-01T12:00:51;98107.34;;;5.30;100.00
17505;BME280;8870;50.950;11.762;2023-02-01T12:06:18;98094.41;;;5.25;100.00
17505;BME280;8870;50.950;11.762;2023-02-01T12:12:03;98107.47;;;5.18;100.00
17505;BME280;8870;50.950;11.762;2023-02-01T12:17:47;98107.59;;;5.17;100.00
17505;BME280;8870;50.950;11.762;2023-02-01T12:23:28;98094.50;;;5.14;100.00
17505;BME280;8870;50.950;11.762;2023-02-01T12:29:13;98075.09;;;5.12;100.00
17505;BME280;8870;50.950;11.762;2023-02-01T12:35:13;98073.88;;;5.16;100.00
17505;BME280;8870;50.950;11.762;2023-02-01T12:40:37;98069.09;;;5.19;100.00
17505;BME280;8870;50.950;11.762;2023-02-01T12:46:22;98087.06;;;5.17;100.00
17505;BME280;8870;50.950;11.762;2023-02-01T12:51:46;98069.75;;;5.12;100.00
17505;BME280;8870;50.950;11.762;2023-02-01T12:57:23;98077.78;;;5.12;100.00
17505;BME280;8870;50.950;11.762;2023-02-01T13:02:59;98052.63;;;5.14;100.00
17505;BME280;8870;50.950;11.762;2023-02-01T13:08:38;98046.84;;;5.09;100.00
17505;BME280;8870;50.950;11.762;2023-02-01T13:14:03;98023.53;;;5.11;100.00
17505;BME280;8870;50.950;11.762;2023-02-01T13:19:43;98024.63;;;5.08;100.00
17505;BME280;8870;50.950;11.762;2023-02-01T13:25:07;98016.78;;;5.07;100.00
17505;BME280;8870;50.950;11.762;2023-02-01T13:31:08;98004.97;;;5.09;100.00
17505;BME280;8870;50.950;11.762;2023-02-01T13:36:58;98005.13;;;5.08;100.00
17505;BME280;8870;50.950;11.762;2023-02-01T13:42:36;97983.19;;;5.04;100.00
17505;BME280;8870;50.950;11.762;2023-02-01T13:48:14;97964.78;;;5.01;100.00
17505;BME280;8870;50.950;11.762;2023-02-01T13:53:58;97983.44;;;5.01;100.00
17505;BME280;8870;50.950;11.762;2023-02-01T13:59:36;97978.41;;;5.08;100.00
17505;BME280;8870;50.950;11.762;2023-02-01T14:11:36;97983.50;;;5.11;100.00
17505;BME280;8870;50.950;11.762;2023-02-01T14:23:00;97935.56;;;5.19;100.00
17505;BME280;8870;50.950;11.762;2023-02-01T14:28:38;97920.94;;;5.23;100.00
17505;BME280;8870;50.950;11.762;2023-02-01T14:33:58;97924.88;;;5.19;100.00
17505;BME280;8870;50.950;11.762;2023-02-01T14:39:49;97932.34;;;5.16;100.00
17505;BME280;8870;50.950;11.762;2023-02-01T14:51:16;97922.34;;;5.08;100.00
17505;BME280;8870;50.950;11.762;2023-02-01T14:56:35;97890.00;;;5.01;100.00
17505;BME280;8870;50.950;11.762;2023-02-01T15:02:19;97880.44;;;5.08;100.00
17505;BME280;8870;50.950;11.762;2023-02-01T15:07:58;97907.03;;;5.10;100.00
17505;BME280;8870;50.950;11.762;2023-02-01T15:13:20;97899.03;;;5.10;100.00
17505;BME280;8870;50.950;11.762;2023-02-01T15:19:07;97893.81;;;4.99;100.00
17505;BME280;8870;50.950;11.762;2023-02-01T15:24:29;97910.94;;;4.96;100.00
17505;BME280;8870;50.950;11.762;2023-02-01T15:30:05;97883.38;;;4.86;100.00
17505;BME280;8870;50.950;11.762;2023-02-01T15:35:35;97874.81;;;4.82;100.00
17505;BME280;8870;50.950;11.762;2023-02-01T15:41:13;97891.09;;;4.79;100.00
17505;BME280;8870;50.950;11.762;2023-02-01T15:46:35;97905.72;;;4.75;100.00
17505;BME280;8870;50.950;11.762;2023-02-01T15:52:19;97888.81;;;4.65;100.00
17505;BME280;8870;50.950;11.762;2023-02-01T15:57:42;97917.19;;;4.56;100.00
17505;BME280;8870;50.950;11.762;2023-02-01T16:03:33;97912.41;;;4.59;100.00
17505;BME280;8870;50.950;11.762;2023-02-01T16:09:11;97940.56;;;4.42;100.00
17505;BME280;8870;50.950;11.762;2023-02-01T16:14:33;97915.44;;;4.45;100.00
17505;BME280;8870;50.950;11.762;2023-02-01T16:20:05;97923.59;;;4.53;100.00
17505;BME280;8870;50.950;11.762;2023-02-01T16:25:24;97919.84;;;4.66;100.00
17505;BME280;8870;50.950;11.762;2023-02-01T16:30:59;97891.78;;;4.61;100.00
17505;BME280;8870;50.950;11.762;2023-02-01T16:36:18;97900.66;;;4.72;100.00
17505;BME280;8870;50.950;11.762;2023-02-01T16:41:50;97888.44;;;4.79;100.00
17505;BME280;8870;50.950;11.762;2023-02-01T16:47:16;97914.47;;;4.97;100.00
17505;BME280;8870;50.950;11.762;2023-02-01T16:52:48;97976.75;;;4.66;100.00
17505;BME280;8870;50.950;11.762;2023-02-01T16:58:06;98106.22;;;2.62;100.00
17505;BME280;8870;50.950;11.762;2023-02-01T17:03:40;98133.19;;;1.73;100.00
17505;BME280;8870;50.950;11.762;2023-02-01T17:09:14;98140.78;;;1.29;100.00
17505;BME280;8870;50.950;11.762;2023-02-01T17:14:36;98128.19;;;1.07;100.00
17505;BME280;8870;50.950;11.762;2023-02-01T17:20:18;98143.28;;;0.94;100.00
17505;BME280;8870;50.950;11.762;2023-02-01T17:25:37;98143.69;;;1.00;100.00
17505;BME280;8870;50.950;11.762;2023-02-01T17:31:12;98182.94;;;1.08;100.00
17505;BME280;8870;50.950;11.762;2023-02-01T17:36:34;98199.50;;;1.12;100.00
17505;BME280;8870;50.950;11.762;2023-02-01T17:42:10;98232.63;;;1.06;100.00
17505;BME280;8870;50.950;11.762;2023-02-01T17:47:29;98217.97;;;0.87;100.00
17505;BME280;8870;50.950;11.762;2023-02-01T17:53:04;98216.06;;;1.02;100.00
17505;BME280;8870;50.950;11.762;2023-02-01T17:58:25;98215.31;;;1.13;100.00
17505;BME280;8870;50.950;11.762;2023-02-01T18:03:56;98237.72;;;1.09;100.00
17505;BME280;8870;50.950;11.762;2023-02-01T18:09:30;98239.81;;;1.04;100.00
17505;BME280;8870;50.950;11.762;2023-02-01T18:14:48;98234.00;;;0.99;100.00
17505;BME280;8870;50.950;11.762;2023-02-01T18:20:23;98217.97;;;1.00;100.00
17505;BME280;8870;50.950;11.762;2023-02-01T18:25:44;98222.00;;;1.06;100.00
17505;BME280;8870;50.950;11.762;2023-02-01T18:31:20;98209.13;;;1.26;100.00
17505;BME280;8870;50.950;11.762;2023-02-01T18:36:38;98210.94;;;1.51;100.00
17505;BME280;8870;50.950;11.762;2023-02-01T18:42:12;98209.81;;;1.66;100.00
17505;BME280;8870;50.950;11.762;2023-02-01T18:47:30;98186.66;;;1.68;100.00
17505;BME280;8870;50.950;11.762;2023-02-01T18:53:03;98158.59;;;1.77;100.00
17505;BME280;8870;50.950;11.762;2023-02-01T18:58:25;98175.75;;;1.84;100.00
17505;BME280;8870;50.950;11.762;2023-02-01T19:03:57;98173.41;;;1.93;100.00
17505;BME280;8870;50.950;11.762;2023-02-01T19:09:37;98167.56;;;1.88;100.00
17505;BME280;8870;50.950;11.762;2023-02-01T19:14:58;98171.38;;;1.96;100.00
17505;BME280;8870;50.950;11.762;2023-02-01T19:20:29;98162.31;;;1.99;100.00
17505;BME280;8870;50.950;11.762;2023-02-01T19:25:49;98159.69;;;2.10;100.00
17505;BME280;8870;50.950;11.762;2023-02-01T19:31:24;98176.72;;;2.08;100.00
17505;BME280;8870;50.950;11.762;2023-02-01T19:36:43;98167.47;;;2.13;100.00
17505;BME280;8870;50.950;11.762;2023-02-01T19:42:15;98157.56;;;2.15;100.00
17505;BME280;8870;50.950;11.762;2023-02-01T19:47:36;98165.75;;;2.12;100.00
17505;BME280;8870;50.950;11.762;2023-02-01T19:53:07;98171.84;;;2.26;100.00
17505;BME280;8870;50.950;11.762;2023-02-01T19:58:26;98143.78;;;2.46;100.00
17505;BME280;8870;50.950;11.762;2023-02-01T20:04:00;98148.06;;;2.71;100.00
17505;BME280;8870;50.950;11.762;2023-02-01T20:09:33;98144.88;;;2.66;100.00
17505;BME280;8870;50.950;11.762;2023-02-01T20:14:52;98140.47;;;2.89;100.00
17505;BME280;8870;50.950;11.762;2023-02-01T20:20:28;98131.16;;;3.06;100.00
17505;BME280;8870;50.950;11.762;2023-02-01T20:25:47;98113.34;;;3.18;100.00
17505;BME280;8870;50.950;11.762;2023-02-01T20:31:18;98125.31;;;3.13;100.00
17505;BME280;8870;50.950;11.762;2023-02-01T20:36:41;98140.31;;;2.91;100.00
17505;BME280;8870;50.950;11.762;2023-02-01T20:42:12;98147.56;;;2.89;100.00
17505;BME280;8870;50.950;11.762;2023-02-01T20:47:31;98161.81;;;2.76;100.00
17505;BME280;8870;50.950;11.762;2023-02-01T20:53:07;98145.16;;;2.63;100.00
17505;BME280;8870;50.950;11.762;2023-02-01T20:58:34;98162.53;;;2.67;100.00
17505;BME280;8870;50.950;11.762;2023-02-01T21:04:05;98156.22;;;2.57;100.00
17505;BME280;8870;50.950;11.762;2023-02-01T21:09:26;98156.97;;;2.59;100.00
17505;BME280;8870;50.950;11.762;2023-02-01T21:15:02;98168.34;;;2.61;100.00
17505;BME280;8870;50.950;11.762;2023-02-01T21:20:21;98175.22;;;2.64;100.00
17505;BME280;8870;50.950;11.762;2023-02-01T21:25:59;98176.56;;;2.69;100.00
17505;BME280;8870;50.950;11.762;2023-02-01T21:31:19;98179.00;;;2.72;100.00
17505;BME280;8870;50.950;11.762;2023-02-01T21:36:52;98185.28;;;2.71;100.00
17505;BME280;8870;50.950;11.762;2023-02-01T21:42:13;98186.25;;;2.70;100.00
17505;BME280;8870;50.950;11.762;2023-02-01T21:47:45;98195.44;;;2.77;100.00
17505;BME280;8870;50.950;11.762;2023-02-01T21:53:03;98204.03;;;2.70;100.00
17505;BME280;8870;50.950;11.762;2023-02-01T21:58:37;98208.50;;;2.69;100.00
17505;BME280;8870;50.950;11.762;2023-02-01T22:03:55;98205.97;;;2.68;100.00
17505;BME280;8870;50.950;11.762;2023-02-01T22:09:27;98206.41;;;2.61;100.00
17505;BME280;8870;50.950;11.762;2023-02-01T22:14:49;98193.38;;;2.58;100.00
17505;BME280;8870;50.950;11.762;2023-02-01T22:20:21;98205.06;;;2.56;100.00
17505;BME280;8870;50.950;11.762;2023-02-01T22:25:43;98210.13;;;2.47;100.00
17505;BME280;8870;50.950;11.762;2023-02-01T22:31:19;98207.00;;;2.54;100.00
17505;BME280;8870;50.950;11.762;2023-02-01T22:36:38;98195.00;;;2.48;100.00
17505;BME280;8870;50.950;11.762;2023-02-01T22:42:09;98197.41;;;2.40;100.00
17505;BME280;8870;50.950;11.762;2023-02-01T22:47:30;98209.47;;;2.33;100.00
17505;BME280;8870;50.950;11.762;2023-02-01T22:53:01;98215.41;;;2.36;100.00
17505;BME280;8870;50.950;11.762;2023-02-01T22:58:20;98232.44;;;2.34;100.00
17505;BME280;8870;50.950;11.762;2023-02-01T23:03:58;98214.88;;;2.31;100.00
17505;BME280;8870;50.950;11.762;2023-02-01T23:09:18;98228.63;;;2.25;100.00
17505;BME280;8870;50.950;11.762;2023-02-01T23:14:49;98223.72;;;2.31;100.00
17505;BME280;8870;50.950;11.762;2023-02-01T23:20:25;98210.69;;;2.40;100.00
17505;BME280;8870;50.950;11.762;2023-02-01T23:25:56;98212.03;;;2.45;100.00
17505;BME280;8870;50.950;11.762;2023-02-01T23:31:15;98195.38;;;2.55;100.00
17505;BME280;8870;50.950;11.762;2023-02-01T23:36:50;98184.75;;;2.55;100.00
17505;BME280;8870;50.950;11.762;2023-02-01T23:42:08;98181.38;;;2.53;100.00
17505;BME280;8870;50.950;11.762;2023-02-01T23:47:40;98197.91;;;2.45;100.00
17505;BME280;8870;50.950;11.762;2023-02-01T23:53:01;98222.47;;;2.49;100.00
17505;BME280;8870;50.950;11.762;2023-02-01T23:58:32;98185.66;;;2.67;100.00
